Station: Mackay  

  Atmospheric Gas Attenuation - ITU Rec 676-11   ----------------- dB/100km -----------------
Date Time Temp RH % AH g/m3 Dew Point Wind Direction Speed kph Gust kph Barometer mB Rainfall Since 9am 24GHz 47GHz 76GHz 122GHz 134GHz 241GHz
09/05 20:10 22.2 83 16.29 19.2 13 22 1021 0 35.4 36.6 67.7 178.8 192.4 667.6
09/05 20:00 22.1 83 16.2 19.1 19 30 1020.9 0 35.2 36.4 67.4 177.9 191.3 663.7
09/05 19:50 22 83 16.11 19 17 26 1020.8 0 35.1 36.3 67.0 177.0 190.2 659.8
09/05 19:40 22.1 82 16.01 18.9 17 24 1020.7 0 34.8 36.1 66.5 175.5 188.4 653.7
09/05 19:30 22.2 82 16.1 19 17 33 1020.6 0 35.0 36.2 66.8 176.4 189.5 657.5
09/05 19:20 22.2 81 15.9 18.8 17 20 1020.4 0 34.6 35.8 65.9 173.9 186.5 647.0
09/05 19:10 22.1 80 15.62 18.5 15 22 1020.3 0 34.0 35.4 64.7 170.8 182.5 633.3
09/05 19:00 22 80 15.53 18.4 17 28 1020.2 0 33.8 35.2 64.3 169.9 181.4 629.5
09/05 18:50 21.8 80 15.35 18.2 15 24 1020.1 0 33.5 35.0 63.7 168.2 179.3 621.8
09/05 18:40 21.6 79 14.98 17.8 13 19 1019.9 0 32.7 34.4 62.2 164.2 174.3 604.4
09/05 18:30 21.5 80 15.08 17.9 15 26 1019.7 0 32.9 34.6 62.7 165.5 175.9 610.2
09/05 18:20 21.5 80 15.08 17.9 11 15 1019.6 0 32.9 34.6 62.7 165.5 175.9 610.2
09/05 18:10 21.3 79 14.72 17.5 17 24 1019.4 0 32.2 34.0 61.2 161.6 171.1 593.3
09/05 18:00 21.3 78 14.54 17.3 17 30 1019.4 0 31.8 33.7 60.4 159.5 168.5 584.2
09/05 17:50 21.2 78 14.45 17.2 13 19 1019.3 0 31.6 33.6 60.1 158.6 167.4 580.4
09/05 17:40 21.3 76 14.17 16.9 17 20 1019.3 0 31.0 33.0 58.8 155.2 163.1 565.6
09/05 17:30 21.4 75 14.06 16.8 17 24 1019.2 0 30.7 32.8 58.3 153.7 161.4 559.4
09/05 17:20 21.4 73 13.68 16.4 17 22 1019.1 0 29.9 32.1 56.6 149.3 156.0 540.5
09/05 17:10 21.4 72 13.5 16.1 19 20 1019.1 0 29.6 31.8 55.8 147.2 153.4 531.7
09/05 17:00 21.5 71 13.39 16 15 28 1019 0 29.3 31.6 55.3 145.8 151.7 525.6
09/05 16:50 21.7 69 13.16 15.8 17 22 1018.8 0 28.8 31.1 54.2 142.8 148.1 513.0
09/05 16:40 22 68 13.2 15.8 13 17 1018.7 0 28.9 31.1 54.1 142.7 148.0 513.0
09/05 16:30 22.1 67 13.08 15.7 15 26 1018.7 0 28.6 30.8 53.5 141.1 146.2 506.5
09/05 16:20 22.3 66 13.03 15.6 17 28 1018.6 0 28.5 30.7 53.2 140.2 145.1 502.8
09/05 16:10 22.4 65 12.91 15.5 13 17 1018.5 0 28.2 30.4 52.6 138.7 143.3 496.4
09/05 16:00 22.5 65 12.98 15.6 17 28 1018.4 0 28.4 30.5 52.8 139.3 144.0 499.1
09/05 15:50 22.6 63 12.66 15.2 17 20 1018.4 0 27.7 30.0 51.5 135.6 139.5 483.4
09/05 15:40 22.9 64 13.08 15.7 19 24 1018.2 0 28.6 30.5 53.0 139.6 144.6 501.2
09/05 15:30 22.9 63 12.87 15.5 17 28 1018 0 28.1 30.2 52.1 137.3 141.8 491.2
09/05 15:20 22.8 63 12.8 15.4 13 17 1018 0 28.0 30.1 51.9 136.7 141.0 488.5
09/05 15:10 23 63 12.95 15.6 15 28 1018 0 28.3 30.3 52.4 138.0 142.7 494.3
09/05 15:00 23.3 63 13.17 15.9 17 28 1017.9 0 28.7 30.5 53.1 139.9 145.1 502.8
09/05 14:50 23.2 61 12.68 15.3 19 26 1018 0 27.7 29.8 51.1 134.7 138.7 480.5
09/05 14:40 23 60 12.33 14.8 19 26 1017.9 0 27.0 29.3 49.8 131.3 134.4 465.4
09/05 14:30 23.2 58 12.06 14.7 19 30 1017.8 0 26.4 28.8 48.6 128.1 130.5 451.8
09/05 14:20 23.5 60 12.69 15.5 19 24 1018 0 27.7 29.7 51.0 134.3 138.3 479.1
09/05 14:10 23.2 58 12.06 14.5 20 28 1018 0 26.4 28.8 48.6 128.1 130.5 451.9
09/05 14:00 23.2 58 12.06 14.7 19 33 1018.1 0 26.4 28.8 48.6 128.1 130.5 451.9
09/05 13:50 23.4 59 12.41 14.9 20 32 1018.2 0 27.1 29.3 49.9 131.5 134.8 466.8
09/05 13:40 23.3 60 12.54 15.1 17 24 1018.4 0 27.4 29.5 50.5 133.1 136.7 473.5
09/05 13:30 23.6 60 12.76 15.4 20 35 1018.4 0 27.8 29.8 51.2 135.0 139.1 481.9
09/05 13:20 23.4 57 11.99 14.4 22 30 1018.5 0 26.2 28.6 48.3 127.1 129.3 447.7
09/05 13:10 23.1 57 11.78 14.1 17 26 1018.4 0 25.8 28.4 47.6 125.3 127.0 439.8
09/05 13:00 23.6 57 12.12 14.6 19 32 1018.6 0 26.5 28.8 48.7 128.1 130.7 452.5
09/05 12:50 23.3 57 11.92 14.3 15 22 1018.7 0 26.1 28.5 48.0 126.5 128.6 445.2
09/05 12:40 23.2 56 11.64 13.9 22 32 1018.8 0 25.5 28.1 47.0 123.7 125.1 433.1
09/05 12:30 23 56 11.51 13.8 22 37 1018.9 0 25.2 28.0 46.6 122.7 123.8 428.3
09/05 12:20 23.1 54 11.16 13.3 19 26 1019.1 0 24.5 27.4 45.2 118.9 119.1 412.2
09/05 12:10 23.6 55 11.7 14 19 24 1019.2 0 25.6 28.1 47.0 123.8 125.3 433.7
09/05 12:00 23.3 51 10.66 12.6 20 33 1019.3 0 23.4 26.6 43.2 113.5 112.6 389.2
09/05 11:50 23.1 51 10.54 12.4 19 24 1019.4 0 23.2 26.5 42.8 112.6 111.4 384.9
09/05 11:40 23.3 52 10.87 12.9 17 22 1019.6 0 23.9 26.9 44.0 115.7 115.2 398.5
09/05 11:30 22.9 49 10.01 11.6 22 33 1019.7 0 22.1 25.7 41.0 107.6 105.1 363.0
09/05 11:20 23 48 9.87 11.4 26 32 1019.9 0 21.8 25.5 40.4 106.1 103.3 356.6
09/05 11:10 23.2 48 9.98 11.6 24 30 1020.1 0 22.0 25.6 40.7 106.9 104.4 360.5
09/05 11:00 23.2 53 11.02 13.1 19 33 1020.2 0 24.2 27.2 44.7 117.5 117.3 405.8
09/05 10:50 22.4 47 9.33 10.5 19 26 1020.3 0 20.7 24.9 38.7 101.6 97.5 336.3
09/05 10:40 22.3 46 9.08 10.1 20 26 1020.5 0 20.2 24.5 37.8 99.2 94.6 326.2
09/05 10:30 22.5 45 8.99 10 19 30 1020.5 0 20.0 24.3 37.4 98.1 93.3 321.6
09/05 10:20 22.1 46 8.98 9.9 17 24 1020.5 0 20.0 24.4 37.6 98.5 93.6 322.8
09/05 10:10 21.9 45 8.68 9.4 20 26 1020.5 0 19.4 24.0 36.6 95.8 90.3 311.0
09/05 10:00 21.6 43 8.15 8.5 19 30 1020.6 0 18.3 23.3 34.8 91.1 84.3 290.1
09/05 09:50 21.5 43 8.11 8.4 19 30 1020.6 0 18.2 23.3 34.7 90.8 84.0 288.8
09/05 09:40 21 41 7.51 7.3 19 26 1020.6 0 17.0 22.6 32.8 85.7 77.5 266.0
09/05 09:30 21 44 8.06 8.3 19 28 1020.5 0 18.1 23.4 34.7 90.9 83.9 288.5
09/05 09:20 20.7 45 8.1 8.4 17 20 1020.4 0 18.2 23.5 35.0 91.6 84.7 291.2
09/05 09:10 20.3 41 7.21 6.6 22 28 1020.4 0 16.4 22.3 32.0 83.6 74.7 256.0
09/05 09:00 19.8 42 7.17 6.5 20 32 1020.5 0 16.3 22.4 32.1 83.8 74.7 256.0
09/05 08:50 19.3 49 8.13 8.3 17 24 1020.5 0 18.3 23.9 35.7 93.5 86.5 297.6
09/05 08:40 18.6 51 8.12 8.3 13 15 1020.5 0 18.3 24.1 36.0 94.2 87.2 299.8
09/05 08:30 18.1 50 7.72 7.5 17 22 1020.5 0 17.5 23.6 34.7 90.9 82.9 284.5
09/05 08:20 17.5 52 7.75 7.5 13 17 1020.4 0 17.6 23.8 35.1 91.8 83.8 287.9
09/05 08:10 16.9 52 7.48 7 15 17 1020.3 0 17.1 23.6 34.3 89.8 81.2 278.4
09/05 08:00 16.4 56 7.82 7.6 13 17 1020.2 0 17.8 24.2 35.8 93.8 85.9 294.9
09/05 07:50 16 55 7.49 7 13 15 1020.1 0 17.1 23.8 34.8 90.9 82.2 282.0
09/05 07:40 15.5 57 7.53 7 13 15 1020.1 0 17.2 24.0 35.1 91.9 83.2 285.5
09/05 07:30 15.1 56 7.22 6.4 13 17 1020 0 16.6 23.6 34.1 89.2 79.8 273.3
09/05 07:20 14.7 57 7.18 6.3 15 17 1019.9 0 16.5 23.7 34.1 89.3 79.7 272.9
09/05 07:10 14.3 60 7.37 6.6 13 15 1019.8 0 16.9 24.1 35.0 91.6 82.5 282.6
09/05 07:00 14 59 7.12 6.1 15 17 1019.7 0 16.4 23.7 34.2 89.4 79.6 272.7
09/05 06:50 13.6 61 7.18 6.2 15 17 1019.5 0 16.6 23.9 34.6 90.5 80.8 276.6
09/05 06:40 13.6 61 7.18 6.2 15 17 1019.4 0 16.6 23.9 34.6 90.4 80.8 276.6
09/05 06:30 13.6 59 6.94 5.7 13 20 1019.3 0 16.1 23.6 33.7 88.0 77.7 266.0
09/05 06:20 13.5 60 7.02 5.9 11 15 1019.2 0 16.2 23.7 34.0 88.9 78.8 269.9
09/05 06:10 13.8 60 7.15 6.2 15 19 1019.1 0 16.5 23.8 34.4 89.9 80.2 274.5
09/05 05:50 13.8 62 7.39 6.7 15 17 1018.8 0 17.0 24.2 35.3 92.3 83.2 285.1
09/05 05:40 13.9 61 7.31 6.5 13 13 1018.7 0 16.8 24.0 34.9 91.4 82.0 281.1
09/05 05:30 14.1 60 7.28 6.5 13 17 1018.7 0 16.8 23.9 34.7 90.8 81.5 279.1
09/05 05:20 14.3 59 7.25 6.4 15 17 1018.7 0 16.7 23.8 34.5 90.3 80.9 277.1
09/05 05:10 14.7 55 6.92 5.8 13 15 1018.6 0 16.0 23.2 33.1 86.5 76.4 261.4
09/05 05:00 15 53 6.8 5.5 15 22 1018.5 0 15.7 23.0 32.5 85.0 74.6 255.2
09/05 04:50 15.5 52 6.87 5.7 13 17 1018.3 0 15.8 22.9 32.6 85.2 75.0 256.6
09/05 04:40 16.1 49 6.72 5.4 17 20 1018.2 0 15.5 22.6 31.8 83.1 72.6 248.4
09/05 04:30 17.1 44 6.4 4.8 17 32 1017.9 0 14.8 21.8 30.3 79.0 67.9 232.1
09/05 04:20 17.7 38 5.73 3.2 20 30 1018 0 13.3 20.8 27.7 72.2 59.8 203.5
09/05 04:10 17.5 37 5.52 2.7 24 30 1018 0 12.9 20.5 27.1 70.5 57.6 195.7
09/05 04:00 17.3 43 6.33 4.6 17 30 1017.8 0 14.6 21.7 29.9 78.1 66.9 228.6
09/05 03:50 17.8 40 6.07 4 15 19 1017.9 0 14.1 21.2 28.9 75.2 63.6 216.8
09/05 03:40 17.9 38 5.8 3.4 22 30 1017.9 0 13.5 20.8 27.9 72.7 60.4 205.8
09/05 03:30 18 36 5.53 2.7 22 33 1017.7 0 12.9 20.4 27.0 70.1 57.3 194.8

Last Refresh: 09-May-2026 19:56:13

Bureau of Meteorology